createdAt,value
2022-11-18T00:02:56.500Z,24.2
2022-11-18T00:08:18.804Z,24
2022-11-18T00:13:55.819Z,23.9
2022-11-18T00:19:34.663Z,24.7
2022-11-18T00:25:16.206Z,25.2
2022-11-18T00:30:52.976Z,24.8
2022-11-18T00:36:29.523Z,24.4
2022-11-18T00:41:52.749Z,24.3
2022-11-18T00:47:30.087Z,24
2022-11-18T00:52:52.502Z,23.9
2022-11-18T00:58:30.004Z,24.2
2022-11-18T01:03:53.421Z,25.3
2022-11-18T01:09:15.632Z,24.9
2022-11-18T01:14:38.329Z,24.6
2022-11-18T01:20:00.440Z,24.3
2022-11-18T01:25:22.714Z,24.1
2022-11-18T01:31:04.716Z,23.9
2022-11-18T01:36:58.785Z,23.8
2022-11-18T01:42:36.521Z,24.8
2022-11-18T01:47:59.242Z,25.2
2022-11-18T01:53:26.413Z,24.6
2022-11-18T01:58:32.723Z,24.3
2022-11-18T02:04:12.675Z,24.1
2022-11-18T02:09:50.916Z,23.9
2022-11-18T02:15:29.217Z,23.8
2022-11-18T02:21:07.387Z,24
2022-11-18T02:26:44.130Z,24.9
2022-11-18T02:31:50.982Z,25
2022-11-18T02:37:12.349Z,24.4
2022-11-18T02:42:50.022Z,24.3
2022-11-18T02:48:27.860Z,24
2022-11-18T02:54:05.650Z,23.8
2022-11-18T02:59:43.480Z,23.8
2022-11-18T03:05:20.775Z,24.4
2022-11-18T03:10:43.852Z,25.2
2022-11-18T03:15:50.402Z,24.6
2022-11-18T03:21:12.622Z,24.3
2022-11-18T03:26:34.429Z,24.1
2022-11-18T03:31:56.788Z,23.9
2022-11-18T03:37:28.153Z,23.8
2022-11-18T03:43:06.070Z,24.1
2022-11-18T03:48:49.687Z,25.1
2022-11-18T03:54:12.497Z,24.8
2022-11-18T03:59:55.484Z,24.3
2022-11-18T04:05:32.619Z,24.1
2022-11-18T04:11:10.325Z,23.9
2022-11-18T04:16:48.747Z,23.8
2022-11-18T04:22:26.653Z,24
2022-11-18T04:27:48.907Z,24.9
2022-11-18T04:33:26.906Z,24.9
2022-11-18T04:38:55.656Z,24.4
2022-11-18T04:44:33.345Z,24.1
2022-11-18T04:50:16.558Z,23.9
2022-11-18T04:55:54.078Z,23.8
2022-11-18T05:01:37.196Z,24.1
2022-11-18T05:06:59.431Z,24.9
2022-11-18T05:12:22.381Z,24.8
2022-11-18T05:17:45.870Z,24.3
2022-11-18T05:23:12.011Z,23.8
2022-11-18T05:28:49.755Z,23.8
2022-11-18T05:34:12.547Z,23.8
2022-11-18T05:39:37.716Z,23.8
2022-11-18T05:45:16.503Z,23.6
2022-11-18T05:50:55.789Z,23.4
2022-11-18T05:56:33.904Z,23.3
2022-11-18T06:02:12.151Z,24.2
2022-11-18T06:07:51.376Z,25
2022-11-18T06:13:29.732Z,24.4
2022-11-18T06:19:10.908Z,24.1
2022-11-18T06:24:48.807Z,23.8
2022-11-18T06:30:32.946Z,23.7
2022-11-18T06:36:10.573Z,23.6
2022-11-18T06:41:55.313Z,23.4
2022-11-18T06:47:19.183Z,23.1
2022-11-18T06:52:41.837Z,23.7
2022-11-18T06:58:25.108Z,24.5
2022-11-18T07:04:03.821Z,24.3
2022-11-18T07:09:40.856Z,24.1
2022-11-18T07:15:23.765Z,24
2022-11-18T07:21:01.195Z,23.8
2022-11-18T07:26:38.661Z,23.8
2022-11-18T07:32:17.175Z,23.6
2022-11-18T07:37:59.347Z,23.3
2022-11-18T07:43:37.473Z,23.8
2022-11-18T07:49:21.810Z,24.6
2022-11-18T07:55:01.515Z,24.3
2022-11-18T08:00:39.993Z,24
2022-11-18T08:06:24.945Z,23.9
2022-11-18T08:12:06.796Z,23.7
2022-11-18T08:17:44.240Z,23.3
2022-11-18T08:23:24.135Z,23.2
2022-11-18T08:29:05.255Z,23.1
2022-11-18T08:34:46.223Z,24
2022-11-18T08:40:13.698Z,24.8
2022-11-18T08:45:38.839Z,24
2022-11-18T08:51:17.017Z,23.6
2022-11-18T08:56:55.151Z,23.4
2022-11-18T09:02:32.305Z,23.4
2022-11-18T09:08:10.097Z,23.3
2022-11-18T09:15:23.943Z,23.1
2022-11-18T09:21:28.783Z,23.1
2022-11-18T09:27:10.927Z,23.9
2022-11-18T09:32:51.441Z,24.2
2022-11-18T09:38:29.632Z,23.8
2022-11-18T09:44:13.243Z,23.6
2022-11-18T09:49:56.293Z,22.9
2022-11-18T09:56:16.097Z,23
2022-11-18T10:01:54.485Z,23.1
2022-11-18T10:07:32.605Z,23
2022-11-18T10:13:15.517Z,22.9
2022-11-18T10:19:18.871Z,22.8
2022-11-18T10:25:07.183Z,22.7
2022-11-18T10:30:29.715Z,22.6
2022-11-18T10:35:51.845Z,22.6
2022-11-18T10:41:59.097Z,23.3
2022-11-18T10:47:22.253Z,23.8
2022-11-18T10:53:07.278Z,23.4
2022-11-18T10:58:50.425Z,23.3
2022-11-18T11:04:31.160Z,23.3
2022-11-18T11:10:18.881Z,22.9
2022-11-18T11:15:58.401Z,22.9
2022-11-18T11:21:37.225Z,22.9
2022-11-18T11:29:07.690Z,22.8
2022-11-18T11:34:45.811Z,22.7
2022-11-18T11:40:28.672Z,22.6
2022-11-18T11:45:50.993Z,22.6
2022-11-18T11:51:37.417Z,23
2022-11-18T11:57:00.038Z,23.6
2022-11-18T12:02:38.581Z,23.5
2022-11-18T12:08:23.836Z,23.4
2022-11-18T12:14:02.029Z,23.1
2022-11-18T12:19:44.884Z,22.9
2022-11-18T12:25:23.618Z,22.9
2022-11-18T12:31:02.252Z,22.9
2022-11-18T12:36:39.500Z,22.9
2022-11-18T12:42:17.677Z,22.8
2022-11-18T12:47:55.854Z,22.6
2022-11-18T12:53:19.223Z,22.6
2022-11-18T12:58:45.249Z,22.3
2022-11-18T13:04:23.909Z,23.2
2022-11-18T13:10:08.489Z,23.5
2022-11-18T13:15:47.288Z,23.2
2022-11-18T13:21:26.083Z,23
2022-11-18T13:26:32.601Z,22.9
2022-11-18T13:32:09.873Z,22.9
2022-11-18T13:37:47.995Z,22.8
2022-11-18T13:43:17.628Z,22.7
2022-11-18T13:48:59.442Z,22.6
2022-11-18T13:54:38.534Z,22.6
2022-11-18T14:00:17.152Z,22.5
2022-11-18T14:05:24.448Z,22.4
2022-11-18T14:11:03.285Z,22.9
2022-11-18T14:16:42.339Z,23.4
2022-11-18T14:22:22.165Z,23.1
2022-11-18T14:28:00.753Z,23.1
2022-11-18T14:33:23.110Z,22.9
2022-11-18T14:40:00.702Z,22.8
2022-11-18T14:45:11.991Z,22.6
2022-11-18T14:50:50.488Z,22.6
2022-11-18T14:56:37.008Z,22.6
2022-11-18T15:02:21.252Z,22.4
2022-11-18T15:07:29.336Z,22.4
2022-11-18T15:12:51.734Z,22.3
2022-11-18T15:18:14.882Z,22.4
2022-11-18T15:23:52.576Z,23.1
2022-11-18T15:29:30.936Z,23.1
2022-11-18T15:35:14.349Z,22.9
2022-11-18T15:40:36.743Z,22.8
2022-11-18T15:46:12.060Z,22.8
2022-11-18T15:51:50.517Z,22.6
2022-11-18T15:57:20.050Z,22.7
2022-11-18T16:02:47.917Z,22.5
2022-11-18T16:08:12.729Z,22.4
2022-11-18T16:13:35.631Z,22.4
2022-11-18T16:19:14.996Z,22.2
2022-11-18T16:24:53.578Z,22.3
2022-11-18T16:30:37.366Z,22.1
2022-11-18T16:36:23.433Z,22.4
2022-11-18T16:42:07.717Z,23.1
2022-11-18T16:47:51.814Z,23.1
2022-11-18T16:53:14.832Z,22.9
2022-11-18T16:58:44.480Z,22.8
2022-11-18T17:05:04.166Z,22.7
2022-11-18T17:10:27.697Z,22.6
2022-11-18T17:15:54.424Z,22.6
2022-11-18T17:21:21.672Z,22.5
2022-11-18T17:26:46.606Z,22.4
2022-11-18T17:32:14.518Z,22.3
2022-11-18T17:37:40.931Z,22.1
2022-11-18T17:43:03.942Z,22.1
2022-11-18T17:48:34.092Z,22.2
2022-11-18T17:54:17.576Z,22.9
2022-11-18T18:00:01.456Z,23.1
2022-11-18T18:05:42.069Z,22.6
2022-11-18T18:11:10.976Z,22.5
2022-11-18T18:16:40.024Z,22.4
2022-11-18T18:22:19.861Z,22.3
2022-11-18T18:27:58.766Z,22.4
2022-11-18T18:33:42.917Z,22.2
2022-11-18T18:38:50.677Z,22.1
2022-11-18T18:43:58.341Z,22.1
2022-11-18T18:49:41.324Z,22.1
2022-11-18T18:55:20.651Z,22
2022-11-18T19:00:54.211Z,22.6
2022-11-18T19:07:49.760Z,23
2022-11-18T19:13:14.394Z,22.5
2022-11-18T19:18:39.152Z,22.4
2022-11-18T19:24:03.515Z,22.3
2022-11-18T19:30:16.085Z,22.3
2022-11-18T19:35:41.223Z,22.2
2022-11-18T19:41:21.195Z,22.2
2022-11-18T19:47:05.827Z,22.2
2022-11-18T19:52:45.810Z,22.3
2022-11-18T19:58:32.366Z,22.2
2022-11-18T20:04:12.351Z,21.9
2022-11-18T20:09:52.937Z,22.8
2022-11-18T20:15:37.319Z,23.8
2022-11-18T20:21:31.576Z,23.1
2022-11-18T20:27:11.311Z,22.9
2022-11-18T20:32:40.405Z,22.7
2022-11-18T20:38:05.091Z,22.5
2022-11-18T20:43:44.747Z,22.4
2022-11-18T20:48:54.747Z,22.4
2022-11-18T20:54:19.387Z,22.3
2022-11-18T20:59:12.031Z,22.3
2022-11-18T21:04:51.165Z,22.2
2022-11-18T21:10:30.903Z,22.1
2022-11-18T21:16:11.240Z,22
2022-11-18T21:21:50.809Z,22.2
2022-11-18T21:27:36.396Z,23.2
2022-11-18T21:33:19.476Z,23.3
2022-11-18T21:39:02.304Z,22.8
2022-11-18T21:45:13.259Z,22.8
2022-11-18T21:50:57.422Z,22.8
2022-11-18T21:56:20.248Z,22.7
2022-11-18T22:01:47.285Z,22.5
2022-11-18T22:07:24.879Z,22.6
2022-11-18T22:12:47.230Z,22.6
2022-11-18T22:18:25.556Z,22.4
2022-11-18T22:24:09.584Z,22.3
2022-11-18T22:29:49.675Z,22.1
2022-11-18T22:35:27.968Z,22.3
2022-11-18T22:41:06.371Z,23.8
2022-11-18T22:46:50.028Z,23.8
2022-11-18T22:52:28.110Z,23.3
2022-11-18T23:00:16.462Z,22.9
2022-11-18T23:07:20.114Z,22.8
2022-11-18T23:13:05.279Z,22.6
2022-11-18T23:18:29.928Z,22.4
2022-11-18T23:23:54.997Z,22.4
2022-11-18T23:29:35.606Z,22.3
2022-11-18T23:35:15.068Z,22.3
2022-11-18T23:40:39.048Z,22.2
2022-11-18T23:46:02.462Z,22.1
2022-11-18T23:51:46.301Z,23.3
2022-11-18T23:57:28.667Z,23.9
